• Join FlightAware (Why Join?)
  • Login
  • US Flag 
04:55AM EDT


 

Airport Tracker/Info


-or-


 

Live Flight TrackerFlight Track Log ✈ N534QS ✈ 07-Jul-2013 ✈ ULLI / LED - KFOK

Flight Track Log - Related Links

Times and Time Zones

All times are in EDT time to prevent confusion due to time zone crossing. See the N534QS flight status page for this flight to view local times or setup timezone preferences in your user account.

Time Position Orientation Groundspeed Altitude Reporting Facility
EDT Latitude Longitude Course Direction KTS MPH feet Rate Location/Type
01:28PM 62.0539 21.9625 303° West  Level Estimated
01:29PM 62.1047 21.7342 296° West  Level Estimated
01:30PM 62.1551 21.5052 295° West  Level Estimated
01:31PM 62.2052 21.2754 295° West  Level Estimated
01:32PM 62.2548 21.0449 295° West  Level Estimated
01:33PM 62.3041 20.8136 295° West  Level Estimated
01:34PM 62.3530 20.5815 295° West  Level Estimated
01:35PM 62.4015 20.3487 294° West  Level Estimated
01:36PM 62.4496 20.1151 294° West  Level Estimated
01:37PM 62.4973 19.8808 294° West  Level Estimated
01:38PM 62.5446 19.6458 294° West  Level Estimated
01:39PM 62.5916 19.4099 293° West  Level Estimated
01:40PM 62.6381 19.1734 293° West  Level Estimated
01:41PM 62.6842 18.9361 293° West  Level Estimated
01:42PM 62.7300 18.6981 293° West  Level Estimated
01:43PM 62.7753 18.4593 293° West  Level Estimated
01:44PM 62.8202 18.2198 292° West  Level Estimated
01:45PM 62.8647 17.9796 292° West  Level Estimated
01:46PM 62.9089 17.7386 292° West  Level Estimated
01:47PM 62.9525 17.4969 292° West  Level Estimated
01:48PM 62.9958 17.2545 292° West  Level Estimated
01:49PM 63.0387 17.0114 291° West  Level Estimated
01:50PM 63.0811 16.7676 291° West  Level Estimated
01:51PM 63.1232 16.5231 291° West  Level Estimated
01:52PM 63.1648 16.2778 291° West  Level Estimated
01:53PM 63.2060 16.0319 290° West  Level Estimated
01:54PM 63.2467 15.7853 290° West  Level Estimated
01:55PM 63.2870 15.5379 290° West  Level Estimated
01:56PM 63.3269 15.2899 290° West  Level Estimated
01:57PM 63.3664 15.0412 290° West  Level Estimated
01:58PM 63.4054 14.7918 289° West  Level Estimated
01:59PM 63.4440 14.5417 289° West  Level Estimated
02:00PM 63.4822 14.2910 289° West  Level Estimated
02:01PM 63.5199 14.0396 289° West  Level Estimated
02:02PM 63.5572 13.7876 288° West  Level Estimated
02:03PM 63.5940 13.5348 288° West  Level Estimated
02:04PM 63.6304 13.2815 288° West  Level Estimated
02:05PM 63.6663 13.0275 288° West  Level Estimated
02:06PM 63.7018 12.7728 288° West  Level Estimated
02:07PM 63.7369 12.5175 287° West  Level Estimated
02:08PM 63.7715 12.2616 287° West  Level Estimated
02:09PM 63.8056 12.0051 287° West  Level Estimated
02:10PM 63.8393 11.7479 287° West  Level Estimated
02:11PM 63.8725 11.4901 286° West  Level Estimated
02:12PM 63.9052 11.2317 286° West  Level Estimated
02:13PM 63.9375 10.9728 286° West  Level Estimated
02:14PM 63.9694 10.7132 286° West  Level Estimated
02:15PM 64.0007 10.4530 285° West  Level Estimated
02:16PM 64.0316 10.1923 285° West  Level Estimated
02:17PM 64.0621 9.9310 285° West  Level Estimated
02:18PM 64.0921 9.6691 285° West  Level Estimated
02:19PM 64.1216 9.4067 285° West  Level Estimated
02:20PM 64.1506 9.1437 284° West  Level Estimated
02:21PM 64.1791 8.8801 284° West  Level Estimated
02:22PM 64.2072 8.6161 284° West  Level Estimated
02:23PM 64.2348 8.3514 284° West  Level Estimated
02:24PM 64.2619 8.0863 283° West  Level Estimated
02:25PM 64.2885 7.8207 283° West  Level Estimated
02:26PM 64.3147 7.5545 283° West  Level Estimated
02:27PM 64.3403 7.2878 283° West  Level Estimated
02:28PM 64.3655 7.0207 282° West  Level Estimated
02:29PM 64.3902 6.7531 282° West  Level Estimated
02:30PM 64.4144 6.4850 282° West  Level Estimated
02:31PM 64.4382 6.2164 282° West  Level Estimated
02:32PM 64.4614 5.9473 281° West  Level Estimated
02:33PM 64.4841 5.6778 281° West  Level Estimated
02:34PM 64.5064 5.4079 281° West  Level Estimated
02:35PM 64.5281 5.1375 281° West  Level Estimated
02:36PM 64.5494 4.8667 280° West  Level Estimated
02:37PM 64.5701 4.5955 280° West  Level Estimated
02:38PM 64.5904 4.3239 280° West  Level Estimated
02:39PM 64.6101 4.0518 280° West  Level Estimated
02:40PM 64.6294 3.7794 279° West  Level Estimated
02:41PM 64.6481 3.5066 279° West  Level Estimated
02:42PM 64.6664 3.2334 279° West  Level Estimated
02:43PM 64.6841 2.9599 279° West  Level Estimated
02:44PM 64.7013 2.6860 278° West  Level Estimated
02:45PM 64.7181 2.4118 278° West  Level Estimated
02:46PM 64.7343 2.1372 278° West  Level Estimated
02:47PM 64.7500 1.8623 278° West  Level Estimated
02:48PM 64.7652 1.5871 278° West  Level Estimated
02:49PM 64.7799 1.3116 277° West  Level Estimated
02:50PM 64.7941 1.0358 277° West  Level Estimated
02:51PM 64.8078 0.7598 277° West  Level Estimated
02:52PM 64.8209 0.4834 277° West  Level Estimated
02:53PM 64.8336 0.2068 276° West  Level Estimated
02:54PM 64.8457 -0.0701 276° West  Level Estimated
02:55PM 64.8573 -0.3473 276° West  Level Estimated
02:56PM 64.8684 -0.6246 276° West  Level Estimated
02:57PM 64.8790 -0.9022 275° West  Level Estimated
02:58PM 64.8891 -1.1800 275° West  Level Estimated
02:59PM 64.8986 -1.4580 275° West  Level Estimated
03:00PM 64.9077 -1.7362 275° West  Level Estimated
03:01PM 64.9162 -2.0146 274° West  Level Estimated
03:02PM 64.9242 -2.2931 274° West  Level Estimated
03:03PM 64.9316 -2.5718 274° West  Level Estimated
03:04PM 64.9386 -2.8507 273° West  Level Estimated
03:05PM 64.9450 -3.1297 273° West  Level Estimated
03:06PM 64.9509 -3.4088 273° West  Level Estimated
03:07PM 64.9563 -3.6881 273° West  Level Estimated
03:08PM 64.9612 -3.9674 272° West  Level Estimated
03:09PM 64.9655 -4.2469 272° West  Level Estimated
03:10PM 64.9693 -4.5264 272° West  Level Estimated
03:11PM 64.9726 -4.8060 272° West  Level Estimated
03:12PM 64.9754 -5.0857 271° West  Level Estimated
03:13PM 64.9776 -5.3654 271° West  Level Estimated
03:14PM 64.9794 -5.6452 271° West  Level Estimated
03:15PM 64.9806 -5.9249 271° West  Level Estimated
03:16PM 64.9812 -6.2048 270° West  Level Estimated
03:17PM 64.9814 -6.4846 270° West  Level Estimated
03:18PM 64.9810 -6.7644 270° West  Level Estimated
03:19PM 64.9801 -7.0442 270° West  Level Estimated
03:20PM 64.9787 -7.3240 269° West  Level Estimated
03:21PM 64.9768 -7.6037 269° West  Level Estimated
03:22PM 64.9743 -7.8834 269° West  Level Estimated
03:23PM 64.9713 -8.1631 269° West  Level Estimated
03:24PM 64.9678 -8.4426 268° West  Level Estimated
03:25PM 64.9638 -8.7221 268° West  Level Estimated
03:26PM 64.9592 -9.0016 268° West  Level Estimated
03:27PM 64.9541 -9.2809 268° West  Level Estimated
03:28PM 64.9485 -9.5601 267° West  Level Estimated
03:29PM 64.9424 -9.8391 267° West  Level Estimated
03:30PM 64.9358 -10.1181 267° West  Level Estimated
03:31PM 64.9286 -10.3969 267° West  Level Estimated
03:32PM 64.9209 -10.6755 266° West  Level Estimated
03:33PM 64.9127 -10.9540 266° West  Level Estimated
03:34PM 64.9040 -11.2323 266° West  Level Estimated
03:35PM 64.8948 -11.5104 266° West  Level Estimated
03:36PM 64.8850 -11.7883 265° West  Level Estimated
03:37PM 64.8747 -12.0660 265° West  Level Estimated
03:38PM 64.8639 -12.3435 265° West  Level Estimated
03:39PM 64.8526 -12.6208 265° West  Level Estimated
03:40PM 64.8408 -12.8978 264° West  Level Estimated
03:41PM 64.8285 -13.1746 264° West  Level Estimated
03:42PM 64.8156 -13.4511 264° West  Level Estimated
03:43PM 64.8022 -13.7274 264° West  Level Estimated
03:44PM 64.7884 -14.0034 263° West  Level Estimated
03:45PM 64.7740 -14.2790 263° West  Level Estimated
03:46PM 64.7590 -14.5544 263° West  Level Estimated
03:47PM 64.7436 -14.8295 263° West  Level Estimated
03:48PM 64.7277 -15.1043 262° West  Level Estimated
03:49PM 64.7113 -15.3787 262° West  Level Estimated
03:50PM 64.6943 -15.6528 262° West  Level Estimated
03:51PM 64.6769 -15.9265 262° West  Level Estimated
03:52PM 64.6589 -16.1999 261° West  Level Estimated
03:53PM 64.6405 -16.4729 261° West  Level Estimated
03:54PM 64.6215 -16.7456 261° West  Level Estimated
03:55PM 64.6021 -17.0178 261° West  Level Estimated
03:56PM 64.5821 -17.2897 260° West  Level Estimated
03:57PM 64.5617 -17.5611 260° West  Level Estimated
03:58PM 64.5407 -17.8322 260° West  Level Estimated
03:59PM 64.5192 -18.1028 260° West  Level Estimated
04:00PM 64.4973 -18.3730 259° West  Level Estimated
04:01PM 64.4749 -18.6428 259° West  Level Estimated
04:02PM 64.4519 -18.9121 259° West  Level Estimated
04:03PM 64.4285 -19.1810 259° West  Level Estimated
04:04PM 64.4046 -19.4493 258° West  Level Estimated
04:05PM 64.3801 -19.7173 258° West  Level Estimated
04:06PM 64.3552 -19.9847 258° West  Level Estimated
04:07PM 64.3299 -20.2516 258° West  Level Estimated
04:08PM 64.3040 -20.5181 257° West  Level Estimated
04:09PM 64.2776 -20.7840 257° West  Level Estimated
04:10PM 64.2508 -21.0495 257° West  Level Estimated
04:11PM 64.2235 -21.3144 257° West  Level Estimated
04:12PM 64.1957 -21.5788 257° West  Level Estimated
04:13PM 64.1674 -21.8427 256° West  Level Estimated
04:14PM 64.1387 -22.1060 256° West  Level Estimated
04:15PM 64.1095 -22.3687 256° West  Level Estimated
04:16PM 64.0798 -22.6310 256° West  Level Estimated
04:17PM 64.0496 -22.8926 255° West  Level Estimated
04:18PM 64.0190 -23.1537 255° West  Level Estimated
04:19PM 63.9879 -23.4142 255° West  Level Estimated
04:20PM 63.9563 -23.6741 255° West  Level Estimated
04:21PM 63.9243 -23.9334 254° West  Level Estimated
04:22PM 63.8918 -24.1922 254° West  Level Estimated
04:23PM 63.8589 -24.4503 254° West  Level Estimated
04:24PM 63.8255 -24.7078 254° West  Level Estimated
04:25PM 63.7916 -24.9647 253° West  Level Estimated
04:26PM 63.7573 -25.2210 253° West  Level Estimated
04:27PM 63.7225 -25.4767 253° West  Level Estimated
04:28PM 63.6873 -25.7317 253° West  Level Estimated
04:29PM 63.6516 -25.9861 253° West  Level Estimated
04:30PM 63.6155 -26.2398 252° West  Level Estimated
04:31PM 63.5789 -26.4930 252° West  Level Estimated
04:32PM 63.5419 -26.7454 252° West  Level Estimated
04:33PM 63.5044 -26.9972 252° West  Level Estimated
04:34PM 63.4665 -27.2483 251° West  Level Estimated
04:35PM 63.4282 -27.4988 251° West  Level Estimated
04:36PM 63.3894 -27.7486 251° West  Level Estimated
04:37PM 63.3502 -27.9977 251° West  Level Estimated
04:38PM 63.3106 -28.2461 251° West  Level Estimated
04:39PM 63.2705 -28.4938 250° West  Level Estimated
04:40PM 63.2300 -28.7409 250° West  Level Estimated
04:41PM 63.1891 -28.9872 250° West  Level Estimated
04:42PM 63.1477 -29.2329 250° West  Level Estimated
04:43PM 63.1059 -29.4778 249° West  Level Estimated
04:44PM 63.0637 -29.7221 249° West  Level Estimated
04:45PM 63.0211 -29.9656 249° West  Level Estimated
04:46PM 62.9781 -30.2084 249° West  Level Estimated
04:47PM 62.9346 -30.4505 249° West  Level Estimated
04:48PM 62.8908 -30.6919 248° West  Level Estimated
04:49PM 62.8465 -30.9326 248° West  Level Estimated
04:50PM 62.8018 -31.1725 248° West  Level Estimated
04:51PM 62.7567 -31.4117 248° West  Level Estimated
04:52PM 62.7112 -31.6502 247° West  Level Estimated
04:53PM 62.6653 -31.8879 247° West  Level Estimated
04:54PM 62.6190 -32.1249 247° West  Level Estimated
04:55PM 62.5723 -32.3611 247° West  Level Estimated
04:56PM 62.5252 -32.5966 247° West  Level Estimated
04:57PM 62.4777 -32.8314 246° West  Level Estimated
04:58PM 62.4299 -33.0654 246° West  Level Estimated
04:59PM 62.3816 -33.2986 246° West  Level Estimated
05:00PM 62.3329 -33.5312 246° West  Level Estimated
05:01PM 62.2839 -33.7629 246° West  Level Estimated
05:02PM 62.2344 -33.9939 245° Southwest  Level Estimated
05:03PM 62.1846 -34.2241 245° Southwest  Level Estimated
05:04PM 62.1344 -34.4536 245° Southwest  Level Estimated
05:05PM 62.0838 -34.6823 245° Southwest  Level Estimated
05:06PM 62.0329 -34.9103 245° Southwest  Level Estimated
05:07PM 61.9815 -35.1374 244° Southwest  Level Estimated
05:08PM 61.9298 -35.3638 244° Southwest  Level Estimated
05:09PM 61.8778 -35.5895 244° Southwest  Level Estimated
05:10PM 61.8253 -35.8144 244° Southwest  Level Estimated
05:11PM 61.7725 -36.0385 244° Southwest  Level Estimated
05:12PM 61.7193 -36.2618 243° Southwest  Level Estimated
05:13PM 61.6658 -36.4844 243° Southwest  Level Estimated
05:14PM 61.6119 -36.7062 243° Southwest  Level Estimated
05:15PM 61.5577 -36.9272 243° Southwest  Level Estimated
05:16PM 61.5031 -37.1475 243° Southwest  Level Estimated
05:17PM 61.4481 -37.3669 242° Southwest  Level Estimated
05:18PM 61.3928 -37.5856 242° Southwest  Level Estimated
05:19PM 61.3372 -37.8036 242° Southwest  Level Estimated
05:20PM 61.2811 -38.0207 242° Southwest  Level Estimated
05:21PM 61.2248 -38.2371 242° Southwest  Level Estimated
05:22PM 61.1681 -38.4527 241° Southwest  Level Estimated
05:23PM 61.1110 -38.6675 241° Southwest  Level Estimated
05:24PM 61.0537 -38.8815 241° Southwest  Level Estimated
05:25PM 60.9959 -39.0948 241° Southwest  Level Estimated
05:26PM 60.9379 -39.3073 241° Southwest  Level Estimated
05:27PM 60.8795 -39.5190 241° Southwest  Level Estimated
05:28PM 60.8208 -39.7299 240° Southwest  Level Estimated
05:29PM 60.7618 -39.9401 240° Southwest  Level Estimated
05:30PM 60.7024 -40.1495 240° Southwest  Level Estimated
05:31PM 60.6427 -40.3581 240° Southwest  Level Estimated
05:32PM 60.5827 -40.5659 240° Southwest  Level Estimated
05:33PM 60.5223 -40.7730 239° Southwest  Level Estimated
05:34PM 60.4617 -40.9793 239° Southwest  Level Estimated
05:35PM 60.4007 -41.1848 239° Southwest  Level Estimated
05:36PM 60.3394 -41.3896 239° Southwest  Level Estimated
05:37PM 60.2778 -41.5936 239° Southwest  Level Estimated
05:38PM 60.2159 -41.7968 239° Southwest  Level Estimated
05:39PM 60.1536 -41.9993 238° Southwest  Level Estimated
05:40PM 60.0911 -42.2010 238° Southwest  Level Estimated
05:41PM 60.0283 -42.4019 238° Southwest  Level Estimated
05:42PM 59.9651 -42.6020 238° Southwest  Level Estimated
05:43PM 59.9017 -42.8014 238° Southwest  Level Estimated
05:44PM 59.8379 -43.0000 237° Southwest  Level Estimated
05:45PM 59.7739 -43.1979 237° Southwest  Level Estimated
05:46PM 59.7095 -43.3950 237° Southwest  Level Estimated
05:47PM 59.6449 -43.5914 237° Southwest  Level Estimated
05:48PM 59.5799 -43.7870 237° Southwest  Level Estimated
05:49PM 59.5147 -43.9818 237° Southwest  Level Estimated
05:50PM 59.4492 -44.1759 236° Southwest  Level Estimated
05:51PM 59.3834 -44.3692 236° Southwest  Level Estimated
05:52PM 59.3173 -44.5618 236° Southwest  Level Estimated
05:53PM 59.2510 -44.7536 236° Southwest  Level Estimated
05:54PM 59.1843 -44.9447 236° Southwest  Level Estimated
05:55PM 59.1174 -45.1350 236° Southwest  Level Estimated
05:56PM 59.0502 -45.3246 235° Southwest  Level Estimated
05:57PM 58.9827 -45.5135 235° Southwest  Level Estimated
05:58PM 58.9150 -45.7016 235° Southwest  Level Estimated
05:59PM 58.8470 -45.8890 235° Southwest  Level Estimated
06:00PM 58.7787 -46.0756 235° Southwest  Level Estimated
06:01PM 58.7101 -46.2615 235° Southwest  Level Estimated
06:02PM 58.6413 -46.4467 235° Southwest  Level Estimated
06:03PM 58.5722 -46.6311 234° Southwest  Level Estimated
06:04PM 58.5029 -46.8148 234° Southwest  Level Estimated
06:05PM 58.4332 -46.9978 234° Southwest  Level Estimated
06:06PM 58.3634 -47.1801 234° Southwest  Level Estimated
06:07PM 58.2932 -47.3616 234° Southwest  Level Estimated
06:08PM 58.2228 -47.5425 234° Southwest  Level Estimated
06:09PM 58.1522 -47.7226 233° Southwest  Level Estimated
06:10PM 58.0813 -47.9020 233° Southwest  Level Estimated
06:11PM 58.0102 -48.0807 233° Southwest  Level Estimated
06:12PM 57.9388 -48.2586 233° Southwest  Level Estimated
06:13PM 57.8671 -48.4359 233° Southwest  Level Estimated
06:14PM 57.7952 -48.6124 233° Southwest  Level Estimated
06:15PM 57.7231 -48.7883 233° Southwest  Level Estimated
06:16PM 57.6507 -48.9634 232° Southwest  Level Estimated
06:17PM 57.5781 -49.1379 232° Southwest  Level Estimated
06:18PM 57.5052 -49.3116 232° Southwest  Level Estimated
06:19PM 57.4321 -49.4847 232° Southwest  Level Estimated
06:20PM 57.3588 -49.6571 232° Southwest  Level Estimated
06:21PM 57.2852 -49.8288 232° Southwest  Level Estimated
06:22PM 57.2114 -49.9998 231° Southwest  Level Estimated
06:23PM 57.1374 -50.1701 231° Southwest  Level Estimated
06:24PM 57.0631 -50.3397 231° Southwest  Level Estimated
06:25PM 56.9886 -50.5087 231° Southwest  Level Estimated
06:26PM 56.9139 -50.6770 231° Southwest  Level Estimated
06:27PM 56.8390 -50.8446 231° Southwest  Level Estimated
06:28PM 56.7638 -51.0115 231° Southwest  Level Estimated
06:29PM 56.6884 -51.1778 230° Southwest  Level Estimated
06:30PM 56.6128 -51.3434 230° Southwest  Level Estimated
06:31PM 56.5370 -51.5083 230° Southwest  Level Estimated
06:32PM 56.4609 -51.6726 230° Southwest  Level Estimated
06:33PM 56.3847 -51.8362 230° Southwest  Level Estimated
06:34PM 56.3082 -51.9992 230° Southwest  Level Estimated
06:35PM 56.2315 -52.1615 230° Southwest  Level Estimated
06:36PM 56.1546 -52.3232 230° Southwest  Level Estimated
06:37PM 56.0775 -52.4842 229° Southwest  Level Estimated
06:38PM 56.0002 -52.6446 229° Southwest  Level Estimated
06:39PM 55.9227 -52.8043 229° Southwest  Level Estimated
06:40PM 55.8449 -52.9634 229° Southwest  Level Estimated
06:41PM 55.7670 -53.1219 229° Southwest  Level Estimated
06:42PM 55.6889 -53.2797 229° Southwest  Level Estimated
06:43PM 55.6105 -53.4369 229° Southwest  Level Estimated
06:44PM 55.5320 -53.5935 228° Southwest  Level Estimated
06:45PM 55.4532 -53.7494 228° Southwest  Level Estimated
06:46PM 55.3743 -53.9047 228° Southwest  Level Estimated
06:47PM 55.2952 -54.0594 228° Southwest  Level Estimated
06:48PM 55.2158 -54.2135 228° Southwest  Level Estimated
06:49PM 55.1363 -54.3670 228° Southwest  Level Estimated
06:50PM 55.0566 -54.5199 228° Southwest  Level Estimated
06:51PM 54.9767 -54.6721 228° Southwest  Level Estimated
06:52PM 54.8966 -54.8237 227° Southwest  Level Estimated
06:53PM 54.8163 -54.9748 227° Southwest  Level Estimated
06:54PM 54.7359 -55.1252 227° Southwest  Level Estimated
06:55PM 54.6552 -55.2751 227° Southwest  Level Estimated
06:56PM 54.5744 -55.4243 227° Southwest  Level Estimated
06:57PM 54.4934 -55.5730 227° Southwest  Level Estimated
06:58PM 54.4122 -55.7211 227° Southwest  Level Estimated
06:59PM 54.3308 -55.8685 227° Southwest  Level Estimated
07:00PM 54.2492 -56.0154 226° Southwest  Level Estimated
07:01PM 54.1675 -56.1618 226° Southwest  Level Estimated
07:02PM 54.0856 -56.3075 226° Southwest  Level Estimated
07:03PM 54.0035 -56.4527 226° Southwest  Level Estimated
07:04PM 53.9212 -56.5973 226° Southwest  Level Estimated
07:05PM 53.8388 -56.7413 226° Southwest  Level Estimated
07:06PM 53.7561 -56.8848 226° Southwest  Level Estimated
07:07PM 53.6734 -57.0277 226° Southwest  Level Estimated
07:08PM 53.5904 -57.1700 226° Southwest  Level Estimated
07:09PM 53.5073 -57.3118 225° Southwest  Level Estimated
07:10PM 53.4240 -57.4530 225° Southwest  Level Estimated
07:11PM 53.3406 -57.5937 225° Southwest  Level Estimated
07:12PM 53.2569 -57.7338 225° Southwest  Level Estimated
07:13PM 53.1732 -57.8734 225° Southwest  Level Estimated
07:14PM 53.0892 -58.0124 225° Southwest  Level Estimated
07:15PM 53.0051 -58.1509 225° Southwest  Level Estimated
07:16PM 52.9209 -58.2888 225° Southwest  Level Estimated
07:17PM 52.8364 -58.4263 225° Southwest  Level Estimated
07:18PM 52.7519 -58.5631 224° Southwest  Level Estimated
07:19PM 52.6671 -58.6995 224° Southwest  Level Estimated
07:20PM 52.5822 -58.8353 224° Southwest  Level Estimated
07:21PM 52.4972 -58.9706 224° Southwest  Level Estimated
07:22PM 52.4120 -59.1054 224° Southwest  Level Estimated
07:23PM 52.3266 -59.2396 224° Southwest  Level Estimated
07:24PM 52.2411 -59.3733 224° Southwest  Level Estimated
07:25PM 52.1554 -59.5066 224° Southwest  Level Estimated
07:26PM 52.0696 -59.6393 224° Southwest  Level Estimated
07:27PM 51.9837 -59.7715 223° Southwest  Level Estimated
07:28PM 51.8976 -59.9032 223° Southwest  Level Estimated
07:29PM 51.8113 -60.0344 223° Southwest  Level Estimated
07:30PM 51.7249 -60.1650 223° Southwest  Level Estimated
07:31PM 51.6384 -60.2952 223° Southwest  Level Estimated
07:32PM 51.5517 -60.4249 223° Southwest  Level Estimated
07:33PM 51.4649 -60.5541 223° Southwest  Level Estimated
07:34PM 51.3779 -60.6828 223° Southwest  Level Estimated
07:35PM 51.2908 -60.8110 223° Southwest  Level Estimated
07:36PM 51.2035 -60.9388 223° Southwest  Level Estimated
07:37PM 51.1162 -61.0660 222° Southwest  Level Estimated
07:38PM 51.0286 -61.1928 222° Southwest  Level Estimated
07:39PM 50.9410 -61.3191 222° Southwest  Level Estimated
07:40PM 50.8532 -61.4449 222° Southwest  Level Estimated
07:41PM 50.7653 -61.5702 222° Southwest  Level Estimated
07:42PM 50.6772 -61.6951 222° Southwest  Level Estimated
07:43PM 50.5890 -61.8195 222° Southwest  Level Estimated
07:44PM 50.5007 -61.9434 222° Southwest  Level Estimated
07:45PM 50.4122 -62.0669 222° Southwest  Level Estimated
07:46PM 50.3236 -62.1899 222° Southwest  Level Estimated
07:47PM 50.2349 -62.3124 221° Southwest  Level Estimated
07:48PM 50.1460 -62.4345 221° Southwest  Level Estimated
07:49PM 50.0571 -62.5562 221° Southwest  Level Estimated
07:50PM 49.9680 -62.6774 221° Southwest  Level Estimated
07:51PM 49.8787 -62.7981 221° Southwest  Level Estimated
07:52PM 49.7894 -62.9184 221° Southwest  Level Estimated
07:53PM 49.6999 -63.0383 221° Southwest  Level Estimated
07:54PM 49.6103 -63.1577 221° Southwest  Level Estimated
07:55PM 49.5206 -63.2767 221° Southwest  Level Estimated
07:56PM 49.4308 -63.3952 221° Southwest  Level Estimated
07:57PM 49.3408 -63.5133 221° Southwest  Level Estimated
07:58PM 49.2507 -63.6310 220° Southwest  Level Estimated
07:59PM 49.1605 -63.7482 220° Southwest  Level Estimated
08:00PM 49.0702 -63.8651 220° Southwest  Level Estimated
08:01PM 48.9798 -63.9815 220° Southwest  Level Estimated
08:02PM 48.8892 -64.0974 220° Southwest  Level Estimated
08:03PM 48.7985 -64.2130 220° Southwest  Level Estimated
08:04PM 48.7077 -64.3281 220° Southwest  Level Estimated
08:05PM 48.6168 -64.4428 220° Southwest  Level Estimated
08:06PM 48.5258 -64.5572 220° Southwest  Level Estimated
08:07PM 48.4347 -64.6711 220° Southwest  Level Estimated
08:08PM 48.3434 -64.7845 220° Southwest  Level Estimated
08:09PM 48.2521 -64.8976 220° Southwest  Level Estimated
08:10PM 48.1606 -65.0103 219° Southwest  Level Estimated
08:11PM 48.0691 -65.1226 219° Southwest  Level Estimated
08:12PM 47.9774 -65.2345 219° Southwest  Level Estimated
08:13PM 47.8856 -65.3459 219° Southwest  Level Estimated
08:14PM 47.7937 -65.4570 219° Southwest  Level Estimated
08:15PM 47.7017 -65.5677 219° Southwest  Level Estimated
08:16PM 47.6096 -65.6780 219° Southwest  Level Estimated
08:17PM 47.5174 -65.7880 219° Southwest  Level Estimated
08:18PM 47.4251 -65.8975 219° Southwest  Level Estimated
08:19PM 47.3326 -66.0066 219° Southwest  Level Estimated
08:20PM 47.2401 -66.1154 219° Southwest  Level Estimated
08:21PM 47.1475 -66.2238 219° Southwest  Level Estimated
08:22PM 47.0547 -66.3318 218° Southwest  Level Estimated
08:23PM 46.9619 -66.4395 218° Southwest  Level Estimated
08:24PM 46.8690 -66.5467 218° Southwest  Level Estimated
08:25PM 46.7760 -66.6536 218° Southwest  Level Estimated
08:26PM 46.6828 -66.7601 218° Southwest  Level Estimated
08:27PM 46.5896 -66.8663 218° Southwest  Level Estimated
08:28PM 46.4963 -66.9721 218° Southwest  Level Estimated
08:29PM 46.4029 -67.0775 218° Southwest  Level Estimated
08:30PM 46.3093 -67.1826 218° Southwest  Level Estimated
08:31PM 46.2157 -67.2873 218° Southwest  Level Estimated
08:32PM 46.1220 -67.3916 218° Southwest  Level Estimated
08:33PM 46.0282 -67.4956 218° Southwest  Level Estimated
08:34PM 45.9343 -67.5993 218° Southwest  Level Estimated
08:35PM 45.8403 -67.7026 217° Southwest  Level Estimated
08:36PM 45.7462 -67.8055 217° Southwest  Level Estimated
08:37PM 45.6520 -67.9081 217° Southwest  Level Estimated
08:38PM 45.5578 -68.0104 217° Southwest  Level Estimated
08:39PM 45.4634 -68.1123 217° Southwest  Level Estimated
08:40PM 45.3689 -68.2138 217° Southwest  Level Estimated
08:41PM 45.2744 -68.3151 217° Southwest  Level Estimated
08:42PM 45.1798 -68.4160 217° Southwest  Level Estimated
08:43PM 45.0851 -68.5165 217° Southwest  Level Estimated
08:44PM 44.9902 -68.6168 217° Southwest  Level Estimated
08:45PM 44.8954 -68.7167 217° Southwest  Level Estimated
08:46PM 44.8004 -68.8162 217° Southwest  Level Estimated
08:47PM 44.7053 -68.9155 217° Southwest  Level Estimated
08:48PM 44.6102 -69.0144 217° Southwest  Level Estimated
08:49PM 44.5149 -69.1130 216° Southwest  Level Estimated
08:50PM 44.4196 -69.2112 216° Southwest  Level Estimated
08:51PM 44.3242 -69.3092 216° Southwest  Level Estimated
08:52PM 44.2287 -69.4068 216° Southwest  Level Estimated
08:53PM 44.1331 -69.5041 216° Southwest  Level Estimated
08:54PM 44.0375 -69.6011 216° Southwest  Level Estimated
08:55PM 43.9417 -69.6978 216° Southwest  Level Estimated
08:56PM 43.8459 -69.7942 216° Southwest  Level Estimated
08:57PM 43.7500 -69.8903 216° Southwest  Level Estimated
08:58PM 43.6540 -69.9860 216° Southwest  Level Estimated
08:59PM 43.5580 -70.0815 216° Southwest  Level Estimated
09:00PM 43.4618 -70.1766 216° Southwest  Level Estimated
09:01PM 43.3656 -70.2715 216° Southwest  Level Estimated
09:02PM 43.2693 -70.3660 216° Southwest  Level Estimated
09:03PM 43.1729 -70.4603 216° Southwest  Level Estimated
09:04PM 43.0765 -70.5542 215° Southwest  Level Estimated
09:05PM 42.9800 -70.6479 215° Southwest  Level Estimated
09:06PM 42.8834 -70.7412 215° Southwest  Level Estimated
09:07PM 42.7867 -70.8343 215° Southwest  Level Estimated
09:08PM 42.6899 -70.9271 215° Southwest  Level Estimated
09:09PM 42.5931 -71.0196 215° Southwest  Level Estimated
09:10PM 42.4962 -71.1118 215° Southwest  Level Estimated
09:11PM 42.3992 -71.2037 215° Southwest  Level Estimated
09:12PM 42.3022 -71.2953 215° Southwest  Level Estimated
09:13PM 42.2051 -71.3867 215° Southwest  Level Estimated
09:14PM 42.1079 -71.4778 215° Southwest  Level Estimated
09:15PM 42.0106 -71.5685 215° Southwest  Level Estimated
09:16PM 41.9132 -71.6590 215° Southwest  Level Estimated
09:17PM 41.8158 -71.7493 215° Southwest  Level Estimated
09:18PM 41.7184 -71.8393 215° Southwest  Level Estimated
09:19PM 41.6208 -71.9289 215° Southwest  Level Estimated
09:20PM 41.5232 -72.0184 214° Southwest  Level Estimated
09:21PM 41.4255 -72.1075 214° Southwest  Level Estimated
09:22PM 41.3278 -72.1964 214° Southwest  Level Estimated
09:23PM 41.2299 -72.2850 214° Southwest  Level Estimated
09:24PM 41.1320 -72.3734 214° Southwest  Level Estimated
09:25PM 41.0341 -72.4615 214° Southwest  Level Estimated
09:26PM 40.9361 -72.5493 214° Southwest  Level Estimated
09:27PM 40.8437 -72.6318 214° Southwest  Level Estimated
09:28PM 40.8437 -72.6318 153° Southeast  Level Estimated
09:29PM 40.8437 -72.6318 153° Southeast  Level Estimated
09:30PM 40.8437 -72.6318 153° Southeast  Level Estimated
09:31PM 40.8437 -72.6318 153° Southeast  Level Estimated
09:32PM 40.8437 -72.6318 153° Southeast  Level Estimated
09:33PM 40.8437 -72.6318 153° Southeast  Level Estimated
09:34PM 40.8437 -72.6318 153° Southeast  Level Estimated
09:35PM 40.8437 -72.6318 153° Southeast  Level Estimated
09:36PM 40.8437 -72.6318 153° Southeast  Level Estimated
09:37PM 40.8437 -72.6318 153° Southeast  Level Estimated
09:38PM 40.8437 -72.6318 153° Southeast  Level Estimated
09:39PM 40.8437 -72.6318 153° Southeast  Level Estimated
09:40PM 40.8437 -72.6318 153° Southeast  Level Estimated
09:41PM 40.8437 -72.6318 153° Southeast  Level Estimated
09:42PM 40.8437 -72.6318 153° Southeast  Level Estimated
09:43PM 40.8437 -72.6318 153° Southeast  Level Estimated